createdAt,value
2023-03-24T00:04:31.880Z,11.61
2023-03-24T00:09:56.781Z,11.64
2023-03-24T00:15:25.795Z,11.66
2023-03-24T00:20:53.823Z,11.72
2023-03-24T00:26:21.819Z,11.76
2023-03-24T00:31:47.814Z,11.76
2023-03-24T00:37:15.823Z,11.76
2023-03-24T00:42:39.831Z,11.76
2023-03-24T00:48:11.826Z,11.72
2023-03-24T00:53:39.843Z,11.74
2023-03-24T00:59:06.035Z,11.83
2023-03-24T01:04:32.831Z,11.81
2023-03-24T01:10:03.842Z,11.78
2023-03-24T01:15:32.816Z,11.78
2023-03-24T01:20:58.893Z,11.71
2023-03-24T01:26:26.837Z,11.71
2023-03-24T01:31:52.072Z,11.76
2023-03-24T01:37:16.865Z,11.91
2023-03-24T01:42:44.863Z,11.94
2023-03-24T01:48:09.854Z,12.21
2023-03-24T01:53:41.863Z,12.49
2023-03-24T01:59:15.868Z,12.63
2023-03-24T02:05:00.899Z,12.56
2023-03-24T02:10:34.889Z,12.54
2023-03-24T02:16:14.924Z,12.56
2023-03-24T02:22:12.064Z,12.46
2023-03-24T02:27:55.886Z,12.31
2023-03-24T02:34:14.923Z,12.13
2023-03-24T02:40:06.865Z,12.06
2023-03-24T02:45:44.919Z,11.91
2023-03-24T02:51:24.924Z,11.84
2023-03-24T02:56:56.905Z,11.72
2023-03-24T03:02:48.916Z,11.61
2023-03-24T03:08:17.900Z,11.62
2023-03-24T03:13:48.916Z,11.63
2023-03-24T03:19:20.897Z,11.60
2023-03-24T03:24:50.898Z,11.63
2023-03-24T03:30:25.008Z,11.69
2023-03-24T03:35:53.973Z,11.72
2023-03-24T03:41:18.932Z,11.75
2023-03-24T03:46:46.983Z,11.74
2023-03-24T03:52:28.010Z,11.77
2023-03-24T03:57:52.923Z,11.75
2023-03-24T04:03:55.988Z,11.76
2023-03-24T04:09:50.937Z,11.80
2023-03-24T04:15:34.937Z,11.84
2023-03-24T04:21:43.015Z,11.84
2023-03-24T04:27:12.951Z,11.77
2023-03-24T04:32:48.026Z,11.71
2023-03-24T04:38:23.958Z,11.77
2023-03-24T04:44:07.948Z,11.70
2023-03-24T04:49:48.005Z,11.68
2023-03-24T04:55:39.136Z,11.67
2023-03-24T05:01:04.932Z,11.67
2023-03-24T05:06:32.940Z,11.65
2023-03-24T05:12:01.885Z,11.68
2023-03-24T05:17:45.017Z,11.72
2023-03-24T05:23:10.947Z,11.72
2023-03-24T05:28:40.052Z,11.76
2023-03-24T05:34:04.958Z,11.78
2023-03-24T05:39:46.953Z,11.83
2023-03-24T05:45:41.994Z,11.93
2023-03-24T05:51:17.986Z,12.04
2023-03-24T05:56:52.036Z,12.13
2023-03-24T06:02:28.119Z,12.22
2023-03-24T06:07:57.990Z,12.33
2023-03-24T06:13:25.987Z,12.45
2023-03-24T06:18:59.989Z,12.53
2023-03-24T06:24:40.011Z,12.63
2023-03-24T06:30:05.015Z,12.74
2023-03-24T06:35:33.052Z,12.92
2023-03-24T06:41:01.220Z,13.04
2023-03-24T06:46:26.057Z,13.11
2023-03-24T06:52:01.019Z,13.20
2023-03-24T06:57:30.028Z,13.26
2023-03-24T07:03:15.124Z,13.26
2023-03-24T07:09:02.352Z,13.31
2023-03-24T07:14:28.005Z,13.33
2023-03-24T07:19:55.062Z,13.32
2023-03-24T07:25:41.011Z,13.39
2023-03-24T07:31:19.033Z,13.29
2023-03-24T07:36:50.021Z,13.24
2023-03-24T07:42:18.048Z,13.21
2023-03-24T07:48:11.133Z,13.15
2023-03-24T07:53:43.040Z,13.16
2023-03-24T07:59:19.067Z,13.18
2023-03-24T08:04:44.160Z,13.28
2023-03-24T08:10:37.066Z,13.32
2023-03-24T08:16:04.193Z,13.33
2023-03-24T08:21:29.076Z,13.50
2023-03-24T08:26:53.144Z,13.61
2023-03-24T08:32:21.100Z,13.60
2023-03-24T08:37:45.075Z,13.66
2023-03-24T08:43:12.047Z,13.70
2023-03-24T08:48:40.079Z,13.81
2023-03-24T08:54:11.058Z,13.94
2023-03-24T08:59:36.175Z,14.04
2023-03-24T09:05:03.211Z,14.20
2023-03-24T09:10:29.072Z,14.51
2023-03-24T09:15:55.085Z,14.76
2023-03-24T09:21:23.071Z,14.84
2023-03-24T09:26:47.073Z,15.01
2023-03-24T09:32:12.088Z,15.22
2023-03-24T09:37:39.157Z,15.25
2023-03-24T09:43:10.093Z,15.09
2023-03-24T09:48:42.097Z,15.19
2023-03-24T09:54:24.101Z,15.10
2023-03-24T09:59:50.103Z,14.94
2023-03-24T10:05:14.135Z,14.83
2023-03-24T10:10:50.154Z,14.88
2023-03-24T10:16:22.192Z,15.19
2023-03-24T10:21:56.121Z,15.41
2023-03-24T10:27:33.115Z,15.58
2023-03-24T10:32:58.432Z,15.77
2023-03-24T10:38:33.130Z,16.11
2023-03-24T10:44:03.159Z,16.31
2023-03-24T10:49:32.139Z,16.20
2023-03-24T10:55:05.164Z,16.16
2023-03-24T11:00:42.772Z,15.81
2023-03-24T11:06:10.193Z,15.07
2023-03-24T11:11:47.148Z,14.38
2023-03-24T11:17:22.143Z,14.20
2023-03-24T11:22:46.161Z,14.08
2023-03-24T11:28:15.176Z,13.98
2023-03-24T11:33:46.212Z,13.77
2023-03-24T11:39:14.176Z,12.57
2023-03-24T11:44:41.333Z,11.38
2023-03-24T11:50:24.205Z,10.86
2023-03-24T11:56:00.188Z,10.65
2023-03-24T12:01:36.226Z,10.39
2023-03-24T12:07:18.216Z,10.09
2023-03-24T12:12:54.178Z,9.95
2023-03-24T12:18:36.177Z,9.97
2023-03-24T12:24:09.198Z,9.95
2023-03-24T12:29:52.244Z,9.97
2023-03-24T12:35:53.248Z,10.02
2023-03-24T12:41:49.213Z,10.02
2023-03-24T12:47:28.217Z,9.99
2023-03-24T12:53:14.434Z,10.02
2023-03-24T12:58:57.231Z,10.23
2023-03-24T13:04:28.225Z,10.29
2023-03-24T13:10:00.229Z,10.28
2023-03-24T13:15:32.210Z,10.43
2023-03-24T13:20:59.224Z,10.44
2023-03-24T13:26:33.368Z,10.54
2023-03-24T13:32:05.335Z,10.66
2023-03-24T13:37:33.231Z,10.85
2023-03-24T13:43:09.274Z,11.10
2023-03-24T13:48:50.364Z,11.18
2023-03-24T13:54:22.247Z,11.27
2023-03-24T13:59:48.253Z,11.27
2023-03-24T14:05:19.259Z,11.13
2023-03-24T14:10:57.567Z,11.13
2023-03-24T14:16:46.553Z,11.08
2023-03-24T14:22:27.291Z,11.27
2023-03-24T14:27:53.288Z,11.46
2023-03-24T14:33:18.265Z,11.62
2023-03-24T14:38:50.320Z,12.04
2023-03-24T14:44:17.461Z,12.31
2023-03-24T14:49:49.267Z,12.58
2023-03-24T14:55:24.262Z,12.36
2023-03-24T15:01:06.514Z,12.21
2023-03-24T15:06:34.378Z,12.40
2023-03-24T15:12:09.297Z,12.56
2023-03-24T15:17:35.491Z,12.41
2023-03-24T15:23:02.288Z,12.48
2023-03-24T15:28:34.263Z,12.93
2023-03-24T15:34:00.273Z,13.21
2023-03-24T15:39:30.282Z,13.09
2023-03-24T15:44:57.322Z,13.31
2023-03-24T15:50:40.310Z,13.26
2023-03-24T15:56:19.521Z,13.45
2023-03-24T16:01:48.550Z,13.41
2023-03-24T16:07:14.313Z,13.33
2023-03-24T16:12:40.307Z,13.26
2023-03-24T16:18:07.359Z,13.39
2023-03-24T16:23:33.408Z,13.19
2023-03-24T16:28:58.473Z,13.05
2023-03-24T16:34:27.390Z,12.74
2023-03-24T16:39:52.312Z,12.49
2023-03-24T16:45:19.334Z,12.36
2023-03-24T16:50:56.488Z,12.16
2023-03-24T16:56:24.514Z,11.96
2023-03-24T17:01:52.407Z,11.99
2023-03-24T17:07:20.412Z,12.01
2023-03-24T17:12:45.380Z,12.14
2023-03-24T17:18:12.439Z,12.17
2023-03-24T17:23:41.418Z,12.19
2023-03-24T17:29:10.399Z,12.06
2023-03-24T17:34:36.357Z,11.91
2023-03-24T17:40:05.395Z,11.67
2023-03-24T17:45:32.388Z,11.49
2023-03-24T17:51:04.376Z,11.34
2023-03-24T17:56:31.388Z,11.06
2023-03-24T18:01:55.367Z,10.97
2023-03-24T18:07:20.704Z,10.86
2023-03-24T18:12:47.469Z,10.74
2023-03-24T18:18:12.401Z,10.61
2023-03-24T18:23:39.389Z,10.54
2023-03-24T18:29:07.652Z,10.44
2023-03-24T18:34:33.369Z,10.44
2023-03-24T18:39:58.377Z,10.33
2023-03-24T18:45:26.407Z,10.30
2023-03-24T18:50:58.404Z,10.23
2023-03-24T18:56:24.392Z,10.15
2023-03-24T19:01:55.388Z,10.08
2023-03-24T19:07:21.414Z,10.00
2023-03-24T19:12:45.450Z,9.95
2023-03-24T19:18:13.486Z,9.82
2023-03-24T19:23:37.427Z,9.79
2023-03-24T19:29:04.403Z,9.76
2023-03-24T19:34:33.848Z,9.73
2023-03-24T19:39:59.599Z,9.73
2023-03-24T19:45:25.519Z,9.67
2023-03-24T19:51:00.462Z,9.65
2023-03-24T19:56:27.464Z,9.63
2023-03-24T20:01:51.464Z,9.55
2023-03-24T20:07:19.451Z,9.45
2023-03-24T20:12:43.453Z,9.41
2023-03-24T20:18:08.447Z,9.27
2023-03-24T20:23:35.483Z,9.14
2023-03-24T20:29:06.056Z,9.02
2023-03-24T20:34:29.484Z,8.87
2023-03-24T20:39:57.573Z,8.71
2023-03-24T20:45:25.500Z,8.45
2023-03-24T20:50:56.472Z,8.34
2023-03-24T20:56:25.740Z,8.33
2023-03-24T21:01:50.751Z,8.37
2023-03-24T21:07:15.488Z,8.45
2023-03-24T21:12:53.929Z,8.43
2023-03-24T21:18:19.452Z,8.38
2023-03-24T21:23:45.508Z,8.45
2023-03-24T21:29:13.503Z,8.44
2023-03-24T21:34:38.545Z,8.53
2023-03-24T21:40:03.513Z,8.63
2023-03-24T21:45:34.543Z,8.76
2023-03-24T21:51:06.477Z,8.84
2023-03-24T21:56:31.532Z,9.00
2023-03-24T22:01:59.650Z,9.10
2023-03-24T22:07:29.509Z,9.19
2023-03-24T22:12:54.533Z,9.25
2023-03-24T22:18:22.756Z,9.29
2023-03-24T22:23:49.521Z,9.32
2023-03-24T22:29:14.514Z,9.26
2023-03-24T22:34:42.503Z,9.25
2023-03-24T22:40:07.673Z,9.32
2023-03-24T22:45:31.524Z,9.48
2023-03-24T22:51:05.528Z,9.48
2023-03-24T22:56:32.590Z,9.42
2023-03-24T23:02:06.350Z,9.41
2023-03-24T23:07:36.511Z,9.34
2023-03-24T23:13:01.538Z,9.28
2023-03-24T23:18:27.545Z,9.26
2023-03-24T23:23:55.589Z,9.33
2023-03-24T23:29:20.520Z,9.23
2023-03-24T23:34:44.520Z,9.12
2023-03-24T23:40:21.560Z,8.98
2023-03-24T23:45:46.667Z,8.90
2023-03-24T23:51:11.550Z,8.83
2023-03-24T23:56:43.606Z,8.71
